IkaScore Players IkaScore Alliances






Support IkaScore

Please donate to
me@ikascore.com

using Skrill
Latvia Epsilon
Ikariam players: 50
AverageTotal
Kopējais punktu skaits: 23745961 1187298031
Celtnieki: 19670755 983537771
Celtniecības līmeņi: 2988 4407103
Zinātnieki: 859554 1267841509
Pētniecības līmenis: 293 432312
Ģenerāļi: 11299 16665356
Zelts: 35951493 1797574626
Uzbrukuma punkti: 2819 4158535
Aizsardzības punkti: 4242 6257519
Tirdzniecības statistika: 2458 3625644
Resursi: 14783292 739164599
ziedot: 436954 644506490
Score vulnerability: 192936 284580794
Gold vulnerability: 2222 3277982
Population: 17616 25983204
Donations to score: 358372 528598434

Digg! Delicious! IkaScore homepage
Alliances - Kopējais punktu skaits
  per page  
Rank Alliance Score Type Average Score Updated
1 LAT Kopējais punktu skaits 10646346 1064634648 21/05 13:46
2 ZXN Kopējais punktu skaits 9703745 950967005 21/05 13:46
3 EŽI Kopējais punktu skaits 49049083 637638083 21/05 13:46
4 NEZIN Kopējais punktu skaits 9370515 552860380 21/05 13:46
5 P-Z Kopējais punktu skaits 9620343 471396785 21/05 13:46
6 KidLV Kopējais punktu skaits 10644732 404499817 21/05 13:46
7 SOG Kopējais punktu skaits 10551489 179375306 21/05 13:46
8 DESA Kopējais punktu skaits 8081830 177800268 21/05 13:46
9 K15R Kopējais punktu skaits 19089374 171804362 21/05 13:46
10 BNK Kopējais punktu skaits 1807295 164463830 21/05 13:46
11 LVS- Kopējais punktu skaits 13064706 130647063 21/05 13:46
12 PO- Kopējais punktu skaits 8239680 107115836 21/05 13:46
13 TRVIP Kopējais punktu skaits 5555030 99990538 21/05 13:46
14 SPARS Kopējais punktu skaits 13485149 94396041 21/05 13:46
15 -AHA- Kopējais punktu skaits 4249760 93494718 21/05 13:46
16 -FX- Kopējais punktu skaits 9735787 87622082 21/05 13:46
17 RedS Kopējais punktu skaits 13819707 69098537 21/05 13:46
18 KuP Kopējais punktu skaits 4106139 57485948 21/05 13:46
19 new Kopējais punktu skaits 5124163 56365792 21/05 13:46
20 Z P Kopējais punktu skaits 18898593 37797186 21/05 13:46
21 L V K Kopējais punktu skaits 3872287 34850587 21/05 13:46
22 Kat Kopējais punktu skaits 16819323 33638646 21/05 13:46
23 _LK_ Kopējais punktu skaits 5412341 32474043 21/05 13:46
24 LVO Kopējais punktu skaits 7995188 31980751 21/05 13:46
25 KF P Kopējais punktu skaits 31005355 31005355 21/05 13:46
26 B_S Kopējais punktu skaits 4399266 30794863 21/05 13:46
27 123e Kopējais punktu skaits 22217009 22217009 21/05 13:46
28 TAG Kopējais punktu skaits 649887 21446285 21/05 13:46
29 D-H Kopējais punktu skaits 17608893 17608893 21/05 13:46
30 Andre Kopējais punktu skaits 17397536 17397536 21/05 13:46
31 FIRE Kopējais punktu skaits 5560197 16680592 21/05 13:46
32 LVL Kopējais punktu skaits 2961786 14808931 21/05 13:46
33 -OO- Kopējais punktu skaits 7336847 14673694 21/05 13:46
34 NEZLN Kopējais punktu skaits 1542004 13878035 21/05 13:46
35 NRWL Kopējais punktu skaits 2537661 12688306 21/05 13:46
36 BANDA Kopējais punktu skaits 576108 12098259 21/05 13:46
37 LLS Kopējais punktu skaits 1680454 11763181 21/05 13:46
38 -KC- Kopējais punktu skaits 10205712 10205712 21/05 13:46
39 B-I-A Kopējais punktu skaits 2017420 10087100 21/05 13:46
40 S-M Kopējais punktu skaits 833688 10004253 21/05 13:46
41 -CP- Kopējais punktu skaits 3324952 9974857 21/05 13:46
42 Ku-kū Kopējais punktu skaits 9551242 9551242 21/05 13:46
43 V-V Kopējais punktu skaits 9471354 9471354 21/05 13:46
44 BrivL Kopējais punktu skaits 1132792 9062332 21/05 13:46
45 AGs Kopējais punktu skaits 4409145 8818290 21/05 13:46
46 -re- Kopējais punktu skaits 8807744 8807744 21/05 13:46
47 ENDE Kopējais punktu skaits 135560 7455785 21/05 13:46
48 -NV- Kopējais punktu skaits 5571249 5571249 21/05 13:46
49 Bot Kopējais punktu skaits 695720 5565761 21/05 13:46
50 ILG Kopējais punktu skaits 5133608 5133608 21/05 13:46
51 legia Kopējais punktu skaits 5033554 5033554 21/05 13:46
52 P-P Kopējais punktu skaits 278111 5006001 21/05 13:46
53 oWo Kopējais punktu skaits 2432580 4865160 21/05 13:46
54 -PM- Kopējais punktu skaits 1915221 3830441 21/05 13:46
55 BEK Kopējais punktu skaits 3534914 3534914 21/05 13:46
56 DRAG Kopējais punktu skaits 1154427 3463281 21/05 13:46
57 G-Man Kopējais punktu skaits 187815 3380676 21/05 13:46
58 B_N Kopējais punktu skaits 467603 3273218 21/05 13:46
59 Saw Kopējais punktu skaits 2650128 2650128 21/05 13:46
60 ZAZ Kopējais punktu skaits 2636738 2636738 21/05 13:46
61 321 Kopējais punktu skaits 2493309 2493309 21/05 13:46
62 ROKO Kopējais punktu skaits 2210647 2210647 21/05 13:46
63 exKUP Kopējais punktu skaits 2084503 2084503 21/05 13:46
64 NML Kopējais punktu skaits 1649149 1649149 21/05 13:46
65 Vilki Kopējais punktu skaits 270001 1620004 21/05 13:46
66 LVF Kopējais punktu skaits 1381769 1381769 21/05 13:46
67 KKK Kopējais punktu skaits 192345 1346416 21/05 13:46
68 AOD Kopējais punktu skaits 317726 1270902 21/05 13:46
69 CIR Kopējais punktu skaits 1037612 1037612 21/05 13:46
70 TRp Kopējais punktu skaits 101866 916794 21/05 13:46
71 KVL Kopējais punktu skaits 793655 793655 21/05 13:46
72 PiR Kopējais punktu skaits 753191 753191 21/05 13:46
73 ODA Kopējais punktu skaits 695516 695516 21/05 13:46
74 EGY Kopējais punktu skaits 395555 395555 21/05 13:46
75 DUJA Kopējais punktu skaits 210037 210037 21/05 13:46
76 D-M Kopējais punktu skaits 191087 191087 21/05 13:46
77 Troja Kopējais punktu skaits 78308 156616 21/05 13:46
78 uwu Kopējais punktu skaits 123035 123035 21/05 13:46
79 SWS Kopējais punktu skaits 100108 100108 21/05 13:46
80 janis Kopējais punktu skaits 4546 4546 21/05 13:46
  per page  

Copyright © 2010 IkaScore.com All Rights Reserved | Disclaimer